Time;durP1;ratioP1;P1;durP2;ratioP2;P2;SDS_P1;SDS_P2;PMS_P1;PMS_P2;Temp;Humidity;BMP_temperature;BMP_pressure;BME280_temperature;BME280_humidity;BME280_pressure;Samples;Min_cycle;Max_cycle;Signal;HPM_P1;HPM_P2
2023/09/17 00:01:10;;;;;;;4.75;2.38;;;21.20;90.30;;;;;;5110827;28;20023;-77
2023/09/17 00:03:35;;;;;;;4.47;2.60;;;21.30;90.30;;;;;;5110876;28;20026;-77
2023/09/17 00:06:01;;;;;;;3.92;2.17;;;21.20;90.20;;;;;;5110837;28;20111;-78
2023/09/17 00:08:27;;;;;;;3.72;2.50;;;21.30;90.20;;;;;;5110711;28;20505;-77
2023/09/17 00:10:53;;;;;;;5.32;2.60;;;21.30;90.20;;;;;;5112114;28;20103;-78
2023/09/17 00:13:19;;;;;;;4.18;2.58;;;21.30;90.20;;;;;;5110780;28;20027;-77
2023/09/17 00:15:45;;;;;;;4.20;2.38;;;21.30;90.20;;;;;;5115555;28;20016;-77
2023/09/17 00:18:12;;;;;;;3.47;2.30;;;21.30;90.20;;;;;;5115578;28;20023;-78
2023/09/17 00:20:38;;;;;;;3.72;2.40;;;21.30;90.20;;;;;;5114472;28;20035;-78
2023/09/17 00:23:04;;;;;;;3.35;2.30;;;21.20;90.20;;;;;;5115486;28;20019;-78
2023/09/17 00:25:29;;;;;;;4.22;2.50;;;21.30;90.20;;;;;;5114130;28;20044;-78
2023/09/17 00:27:55;;;;;;;4.20;2.63;;;21.20;90.20;;;;;;5113795;28;20118;-77
2023/09/17 00:30:20;;;;;;;3.70;2.40;;;21.20;90.20;;;;;;5114116;28;20395;-77
2023/09/17 00:32:46;;;;;;;5.38;2.28;;;21.20;90.20;;;;;;5115254;28;20023;-78
2023/09/17 00:35:11;;;;;;;4.85;2.35;;;21.20;90.30;;;;;;5114186;28;20016;-78
2023/09/17 00:37:37;;;;;;;3.97;2.45;;;21.20;90.30;;;;;;5114823;28;20624;-77
2023/09/17 00:40:06;;;;;;;4.18;2.42;;;21.20;90.30;;;;;;5113910;28;20033;-77
2023/09/17 00:42:31;;;;;;;4.28;2.67;;;21.20;90.40;;;;;;5115193;28;20015;-78
2023/09/17 00:44:57;;;;;;;4.68;2.60;;;21.20;90.30;;;;;;5115051;28;20027;-78
2023/09/17 00:47:22;;;;;;;5.80;2.60;;;21.20;90.30;;;;;;5114899;28;20043;-77
2023/09/17 00:49:48;;;;;;;3.78;2.47;;;21.20;90.40;;;;;;5113698;28;20024;-77
2023/09/17 00:52:19;;;;;;;3.28;2.22;;;21.20;90.40;;;;;;5113701;28;20082;-78
2023/09/17 00:54:47;;;;;;;4.22;2.70;;;21.20;90.40;;;;;;5113777;28;20036;-79
2023/09/17 00:57:16;;;;;;;4.10;2.70;;;21.20;90.40;;;;;;5113471;28;20020;-77
2023/09/17 00:59:47;;;;;;;4.03;2.60;;;21.20;90.30;;;;;;5112909;28;20024;-78
2023/09/17 01:02:14;;;;;;;4.07;2.55;;;21.20;90.30;;;;;;5113762;28;20020;-78
2023/09/17 01:04:43;;;;;;;3.80;2.38;;;21.30;90.30;;;;;;5113272;28;20027;-77
2023/09/17 01:07:09;;;;;;;3.80;2.35;;;21.20;90.20;;;;;;5113202;28;20047;-75
2023/09/17 01:09:37;;;;;;;3.80;2.38;;;21.30;90.30;;;;;;5114683;28;20028;-77
2023/09/17 01:12:03;;;;;;;3.75;2.33;;;21.20;90.20;;;;;;5113096;28;20039;-78
2023/09/17 01:14:29;;;;;;;4.80;2.45;;;21.20;90.20;;;;;;5113293;28;20020;-77
2023/09/17 01:16:56;;;;;;;4.85;2.40;;;21.20;90.20;;;;;;5113320;28;20115;-77
2023/09/17 01:19:29;;;;;;;5.72;2.60;;;21.20;90.30;;;;;;5114005;28;20369;-77
2023/09/17 01:22:06;;;;;;;4.55;2.95;;;21.20;90.20;;;;;;5114363;28;20498;-77
2023/09/17 01:24:56;;;;;;;3.78;2.45;;;21.20;90.30;;;;;;5112568;28;20024;-77
2023/09/17 01:27:22;;;;;;;;;;;21.20;90.30;;;;;;5114538;28;20020;-76
2023/09/17 01:29:49;;;;;;;5.55;2.50;;;21.20;90.40;;;;;;5112888;28;19904;-76
2023/09/17 01:32:16;;;;;;;4.82;2.65;;;21.20;90.40;;;;;;5112900;28;20419;-77
2023/09/17 01:34:44;;;;;;;5.72;2.50;;;21.20;90.40;;;;;;5114224;28;20016;-78
2023/09/17 01:37:30;;;;;;;4.13;2.47;;;21.20;90.40;;;;;;5112577;28;20423;-75
2023/09/17 01:39:59;;;;;;;5.85;2.70;;;21.10;90.40;;;;;;5112454;28;20050;-76
2023/09/17 01:42:26;;;;;;;4.57;2.47;;;21.20;90.40;;;;;;5112632;28;20069;-77
2023/09/17 01:44:54;;;;;;;5.13;2.80;;;21.20;90.50;;;;;;5112642;28;20030;-76
2023/09/17 01:47:20;;;;;;;5.25;2.88;;;21.20;90.50;;;;;;5112497;28;20027;-78
2023/09/17 01:49:46;;;;;;;3.70;2.50;;;21.20;90.50;;;;;;5114005;28;20026;-79
2023/09/17 01:52:14;;;;;;;4.47;2.40;;;21.10;90.40;;;;;;5113953;28;20028;-79
2023/09/17 01:54:39;;;;;;;3.90;2.47;;;21.20;90.40;;;;;;5112219;28;20453;-78
2023/09/17 01:57:05;;;;;;;4.07;2.60;;;21.20;90.40;;;;;;5113697;28;20065;-77
2023/09/17 01:59:30;;;;;;;4.10;2.63;;;21.20;90.30;;;;;;5113151;28;20115;-77
2023/09/17 02:01:56;;;;;;;3.70;2.20;;;21.20;90.30;;;;;;5112167;28;20038;-77
2023/09/17 02:04:22;;;;;;;4.32;2.40;;;21.20;90.30;;;;;;5113389;28;20053;-78
2023/09/17 02:06:53;;;;;;;4.88;2.60;;;21.20;90.30;;;;;;5112474;28;20424;-77
2023/09/17 02:09:18;;;;;;;;;;;21.20;90.30;;;;;;5113944;28;20391;-77
2023/09/17 02:11:44;;;;;;;4.63;2.67;;;21.20;90.30;;;;;;5113240;28;19910;-77
2023/09/17 02:14:09;;;;;;;4.50;2.75;;;21.20;90.30;;;;;;5113275;28;20578;-78
2023/09/17 02:16:37;;;;;;;4.38;2.72;;;21.10;90.30;;;;;;5112060;28;20020;-77
2023/09/17 02:19:03;;;;;;;3.70;2.60;;;21.20;90.30;;;;;;5111929;28;20050;-77
2023/09/17 02:21:29;;;;;;;4.63;2.60;;;21.20;90.40;;;;;;5112143;28;20023;-77
2023/09/17 02:23:54;;;;;;;4.10;2.45;;;21.10;90.40;;;;;;5111741;28;20023;-77
2023/09/17 02:26:21;;;;;;;5.03;2.53;;;21.10;90.40;;;;;;5111933;28;20399;-77
2023/09/17 02:28:47;;;;;;;4.85;2.85;;;21.20;90.40;;;;;;5111826;28;20402;-77
2023/09/17 02:31:13;;;;;;;3.88;2.50;;;21.20;90.50;;;;;;5111756;28;20114;-77
2023/09/17 02:33:39;;;;;;;3.67;2.58;;;21.20;90.50;;;;;;5111566;28;20111;-78
2023/09/17 02:36:06;;;;;;;4.50;2.80;;;21.20;90.50;;;;;;5112241;28;20059;-79
2023/09/17 02:38:31;;;;;;;4.10;2.70;;;21.10;90.50;;;;;;5112610;28;20039;-77
2023/09/17 02:40:57;;;;;;;4.57;2.80;;;21.20;90.50;;;;;;5111551;28;20487;-77
2023/09/17 02:43:22;;;;;;;4.50;2.70;;;21.20;90.50;;;;;;5112800;28;20047;-77
2023/09/17 02:45:49;;;;;;;4.63;2.83;;;21.20;90.50;;;;;;5112822;28;20368;-77
2023/09/17 02:48:15;;;;;;;4.20;2.70;;;21.20;90.50;;;;;;5111809;28;20024;-77
2023/09/17 02:50:41;;;;;;;5.20;2.70;;;21.20;90.50;;;;;;5112594;28;20024;-77
2023/09/17 02:53:07;;;;;;;4.25;2.80;;;21.20;90.40;;;;;;5111731;28;20061;-77
2023/09/17 02:55:35;;;;;;;4.20;2.85;;;21.20;90.40;;;;;;5103718;28;20028;-76
2023/09/17 02:58:02;;;;;;;4.10;2.60;;;21.20;90.40;;;;;;5101848;28;20302;-78
2023/09/17 03:00:33;;;;;;;3.67;2.45;;;21.20;90.40;;;;;;5104051;28;20019;-77
2023/09/17 03:02:58;;;;;;;5.25;2.92;;;21.20;90.30;;;;;;5111518;28;20027;-76
2023/09/17 03:05:24;;;;;;;3.92;2.70;;;21.20;90.40;;;;;;5112583;28;20509;-77
2023/09/17 03:07:50;;;;;;;4.63;3.00;;;21.10;90.40;;;;;;5110975;28;20019;-77
2023/09/17 03:10:18;;;;;;;4.68;3.03;;;21.20;90.40;;;;;;5111338;28;20027;-77
2023/09/17 03:12:46;;;;;;;5.45;2.80;;;21.20;90.40;;;;;;5111221;28;20028;-77
2023/09/17 03:15:12;;;;;;;4.60;2.67;;;21.20;90.40;;;;;;5112325;28;20106;-77
2023/09/17 03:17:37;;;;;;;4.95;2.70;;;21.10;90.40;;;;;;5112260;28;20186;-77
2023/09/17 03:20:13;;;;;;;3.90;2.65;;;21.10;90.50;;;;;;5111021;28;20030;-78
2023/09/17 03:22:39;;;;;;;4.80;2.58;;;21.10;90.50;;;;;;5111184;28;20028;-78
2023/09/17 03:25:06;;;;;;;4.63;2.70;;;21.10;90.50;;;;;;5111278;28;20476;-78
2023/09/17 03:27:33;;;;;;;4.68;2.75;;;21.10;90.50;;;;;;5111100;28;20047;-77
2023/09/17 03:29:59;;;;;;;4.13;2.83;;;21.10;90.50;;;;;;5111093;28;20058;-77
2023/09/17 03:32:25;;;;;;;4.03;2.70;;;21.10;90.50;;;;;;5111444;28;20391;-78
2023/09/17 03:34:50;;;;;;;4.13;2.65;;;21.10;90.60;;;;;;5111123;28;20028;-77
2023/09/17 03:37:16;;;;;;;4.63;2.80;;;21.10;90.60;;;;;;5110824;28;20119;-78
2023/09/17 03:40:10;;;;;;;4.53;2.70;;;21.10;90.50;;;;;;5110853;28;20500;-78
2023/09/17 03:42:37;;;;;;;3.67;2.55;;;21.10;90.60;;;;;;5112407;28;20023;-78
2023/09/17 03:45:09;;;;;;;4.50;2.85;;;21.20;90.60;;;;;;5111051;28;20047;-78
2023/09/17 03:47:35;;;;;;;5.00;3.00;;;21.10;90.50;;;;;;5111538;28;20023;-78
2023/09/17 03:50:01;;;;;;;5.50;2.80;;;21.20;90.50;;;;;;5114989;28;20026;-78
2023/09/17 03:52:27;;;;;;;4.57;2.65;;;21.20;90.40;;;;;;5114835;28;20114;-78
2023/09/17 03:54:53;;;;;;;4.60;2.80;;;21.20;90.50;;;;;;5114752;28;20111;-78
2023/09/17 03:57:18;;;;;;;4.07;2.63;;;21.20;90.40;;;;;;5114686;28;20024;-78
2023/09/17 03:59:44;;;;;;;4.20;2.58;;;21.20;90.40;;;;;;5114136;28;20487;-78
2023/09/17 04:02:10;;;;;;;4.57;2.70;;;21.20;90.40;;;;;;5114729;28;20024;-78
2023/09/17 04:04:35;;;;;;;3.90;2.70;;;21.20;90.40;;;;;;5114618;28;20027;-78
2023/09/17 04:07:02;;;;;;;4.15;2.78;;;21.10;90.40;;;;;;5114692;28;20024;-79
2023/09/17 04:09:30;;;;;;;4.75;3.03;;;21.20;90.50;;;;;;5116047;28;20106;-78
2023/09/17 04:11:57;;;;;;;4.75;3.00;;;21.10;90.50;;;;;;5114349;28;20027;-78
2023/09/17 04:14:23;;;;;;;5.72;2.78;;;21.10;90.50;;;;;;5115530;28;20087;-78
2023/09/17 04:16:49;;;;;;;4.38;2.70;;;21.10;90.50;;;;;;5114433;28;20101;-78
2023/09/17 04:19:15;;;;;;;4.65;2.80;;;21.10;90.50;;;;;;5115465;28;20402;-78
2023/09/17 04:21:41;;;;;;;4.28;2.80;;;21.10;90.50;;;;;;5115656;28;20448;-78
2023/09/17 04:24:07;;;;;;;4.10;2.65;;;21.10;90.60;;;;;;5114133;28;20039;-78
2023/09/17 04:26:32;;;;;;;4.85;3.03;;;21.10;90.60;;;;;;5115450;28;20365;-78
2023/09/17 04:28:58;;;;;;;4.80;2.92;;;21.00;90.60;;;;;;5114139;28;20026;-78
2023/09/17 04:31:24;;;;;;;4.57;2.70;;;21.10;90.60;;;;;;5114287;28;20032;-78
2023/09/17 04:33:51;;;;;;;4.78;3.13;;;21.10;90.60;;;;;;5114092;28;20392;-78
2023/09/17 04:36:16;;;;;;;4.55;3.05;;;21.10;90.60;;;;;;5113854;28;20039;-78
2023/09/17 04:38:42;;;;;;;4.50;2.75;;;21.10;90.60;;;;;;5113697;28;20024;-78
2023/09/17 04:41:07;;;;;;;4.45;2.78;;;21.20;90.60;;;;;;5114013;28;20551;-78
2023/09/17 04:43:33;;;;;;;5.07;2.72;;;21.20;90.60;;;;;;5115162;28;20028;-78
2023/09/17 04:45:59;;;;;;;4.40;2.92;;;21.10;90.50;;;;;;5113897;28;20329;-78
2023/09/17 04:48:25;;;;;;;4.57;2.70;;;21.10;90.40;;;;;;5113745;28;20496;-78
2023/09/17 04:50:50;;;;;;;4.13;2.78;;;21.20;90.50;;;;;;5114812;28;20023;-78
2023/09/17 04:53:16;;;;;;;4.35;2.80;;;21.20;90.50;;;;;;5113570;28;20028;-78
2023/09/17 04:55:42;;;;;;;4.45;2.88;;;21.20;90.50;;;;;;5106733;28;20028;-78
2023/09/17 04:58:07;;;;;;;5.00;2.90;;;21.10;90.50;;;;;;5102537;28;20379;-78
2023/09/17 05:00:34;;;;;;;4.65;3.13;;;21.10;90.40;;;;;;5105525;28;20035;-78
2023/09/17 05:03:00;;;;;;;4.18;2.97;;;21.10;90.50;;;;;;5113679;28;20499;-78
2023/09/17 05:05:25;;;;;;;4.18;2.80;;;21.10;90.50;;;;;;5114738;28;20058;-77
2023/09/17 05:07:51;;;;;;;4.40;2.78;;;21.10;90.50;;;;;;5113391;28;20020;-78
2023/09/17 05:10:17;;;;;;;4.93;3.10;;;21.10;90.50;;;;;;5108824;28;20038;-78
2023/09/17 05:12:43;;;;;;;4.78;2.88;;;21.10;90.60;;;;;;5089395;28;20025;-78
2023/09/17 05:15:10;;;;;;;5.63;2.90;;;21.10;90.80;;;;;;5104914;28;20093;-78
2023/09/17 05:17:35;;;;;;;4.78;2.90;;;21.00;90.60;;;;;;5113185;28;20027;-78
2023/09/17 05:20:00;;;;;;;5.15;2.97;;;21.10;90.60;;;;;;5114236;28;20030;-78
2023/09/17 05:22:26;;;;;;;4.30;2.72;;;21.00;90.60;;;;;;5113222;28;20020;-78
2023/09/17 05:24:51;;;;;;;4.78;2.97;;;21.10;90.60;;;;;;5114187;28;20023;-78
2023/09/17 05:27:17;;;;;;;4.15;2.80;;;21.10;90.70;;;;;;5114147;28;20031;-80
2023/09/17 05:29:45;;;;;;;4.88;3.10;;;21.10;90.70;;;;;;5114183;28;20128;-78
2023/09/17 05:32:10;;;;;;;4.28;2.70;;;21.10;90.60;;;;;;5114411;28;20035;-78
2023/09/17 05:34:36;;;;;;;4.57;2.78;;;21.10;90.60;;;;;;5113951;28;20024;-78
2023/09/17 05:37:02;;;;;;;4.63;2.92;;;21.10;90.60;;;;;;5112734;28;20039;-79
2023/09/17 05:39:27;;;;;;;4.88;2.72;;;21.10;90.60;;;;;;5112695;28;20019;-78
2023/09/17 05:41:55;;;;;;;4.88;3.00;;;21.20;90.50;;;;;;5112674;28;20528;-78
2023/09/17 05:44:20;;;;;;;4.75;2.88;;;21.10;90.40;;;;;;5112787;28;20031;-78
2023/09/17 05:46:46;;;;;;;4.15;2.72;;;21.20;90.50;;;;;;5113772;28;20019;-78
2023/09/17 05:49:11;;;;;;;4.13;2.85;;;21.20;90.50;;;;;;5112600;28;20024;-78
2023/09/17 05:51:37;;;;;;;4.95;2.97;;;21.20;90.40;;;;;;5112581;28;20100;-78
2023/09/17 05:54:02;;;;;;;4.38;2.60;;;21.10;90.40;;;;;;5112390;28;20479;-78
2023/09/17 05:56:28;;;;;;;4.82;3.00;;;21.20;90.40;;;;;;5112722;28;20020;-78
2023/09/17 05:58:53;;;;;;;4.18;2.70;;;21.10;90.40;;;;;;5113135;28;20027;-78
2023/09/17 06:01:19;;;;;;;4.68;3.10;;;21.20;90.50;;;;;;5112600;28;20542;-78
2023/09/17 06:03:44;;;;;;;5.78;3.35;;;21.20;90.40;;;;;;5113487;28;20020;-78
2023/09/17 06:06:10;;;;;;;4.55;2.85;;;21.10;90.40;;;;;;5112478;28;20027;-78
2023/09/17 06:08:35;;;;;;;5.18;2.72;;;21.10;90.40;;;;;;5111984;28;20387;-79
2023/09/17 06:11:01;;;;;;;4.28;3.00;;;21.10;90.40;;;;;;5112118;28;20031;-78
2023/09/17 06:13:26;;;;;;;3.97;2.70;;;21.10;90.40;;;;;;5112249;28;20498;-78
2023/09/17 06:15:52;;;;;;;4.93;2.95;;;21.10;90.50;;;;;;5111863;28;20044;-78
2023/09/17 06:18:18;;;;;;;4.47;2.78;;;21.10;90.50;;;;;;5111875;28;20134;-78
2023/09/17 06:20:44;;;;;;;4.45;2.95;;;21.10;90.60;;;;;;5111862;28;20209;-78
2023/09/17 06:23:09;;;;;;;4.78;3.13;;;21.10;90.60;;;;;;5113373;28;20506;-78
2023/09/17 06:25:35;;;;;;;4.60;2.90;;;21.10;90.60;;;;;;5113133;28;20092;-78
2023/09/17 06:28:00;;;;;;;4.65;2.88;;;21.10;90.60;;;;;;5111545;28;20114;-79
2023/09/17 06:30:26;;;;;;;4.30;2.83;;;21.10;90.60;;;;;;5111935;28;20024;-81
2023/09/17 06:32:52;;;;;;;3.88;2.60;;;21.10;90.60;;;;;;5111498;28;20027;-82
2023/09/17 06:35:18;;;;;;;5.47;2.90;;;21.10;90.50;;;;;;5112694;28;20020;-82
2023/09/17 06:37:43;;;;;;;4.50;2.88;;;21.20;90.50;;;;;;5111339;28;20034;-82
2023/09/17 06:40:13;;;;;;;4.63;2.90;;;21.20;90.50;;;;;;5111707;28;20404;-82
2023/09/17 06:42:39;;;;;;;5.13;3.17;;;21.20;90.50;;;;;;5111599;28;20031;-82
2023/09/17 06:45:05;;;;;;;4.53;2.50;;;21.10;90.50;;;;;;5112466;28;20024;-82
2023/09/17 06:47:31;;;;;;;4.45;2.70;;;21.20;90.50;;;;;;5111205;28;20024;-82
2023/09/17 06:49:57;;;;;;;4.57;2.95;;;21.10;90.40;;;;;;5111289;28;20027;-82
2023/09/17 06:52:23;;;;;;;4.40;2.75;;;21.10;90.50;;;;;;5111301;28;20118;-81
2023/09/17 06:54:50;;;;;;;4.38;2.90;;;21.10;90.50;;;;;;5111186;28;20110;-82
2023/09/17 06:57:15;;;;;;;4.53;2.80;;;21.10;90.50;;;;;;5111108;28;20027;-82
2023/09/17 06:59:41;;;;;;;4.75;3.17;;;21.10;90.60;;;;;;5110898;28;20479;-82
2023/09/17 07:02:06;;;;;;;4.50;2.85;;;21.20;90.60;;;;;;5111084;28;20032;-82
2023/09/17 07:04:32;;;;;;;4.93;2.97;;;21.10;90.60;;;;;;5111198;28;20020;-82
2023/09/17 07:07:00;;;;;;;4.78;2.90;;;21.10;90.60;;;;;;5111022;28;20016;-82
2023/09/17 07:09:27;;;;;;;4.35;2.70;;;21.00;90.60;;;;;;5111089;28;20024;-82
2023/09/17 07:11:53;;;;;;;4.70;2.95;;;21.10;90.60;;;;;;5111129;28;20161;-81
2023/09/17 07:14:18;;;;;;;5.03;3.03;;;21.00;90.60;;;;;;5111031;28;20508;-82
2023/09/17 07:16:44;;;;;;;4.95;3.10;;;21.00;90.60;;;;;;5110919;28;20020;-81
2023/09/17 07:19:10;;;;;;;4.50;2.90;;;21.10;90.60;;;;;;5110790;28;20028;-82
2023/09/17 07:21:35;;;;;;;5.60;2.88;;;21.00;90.70;;;;;;5111161;28;20019;-81
2023/09/17 07:24:01;;;;;;;5.55;3.00;;;21.10;90.60;;;;;;5113849;28;20505;-82
2023/09/17 07:26:28;;;;;;;5.05;2.95;;;21.10;90.60;;;;;;5116613;28;20065;-81
2023/09/17 07:28:53;;;;;;;5.90;4.03;;;21.10;90.60;;;;;;5116743;28;20139;-81
2023/09/17 07:31:19;;;;;;;9.07;7.45;;;21.20;90.30;;;;;;5115786;28;20024;-82
2023/09/17 07:33:44;;;;;;;11.80;8.18;;;21.00;89.10;;;;;;5116340;28;20031;-80
2023/09/17 07:36:11;;;;;;;9.57;8.02;;;21.00;88.70;;;;;;5115609;28;20031;-83
2023/09/17 07:38:37;;;;;;;10.07;8.00;;;20.90;89.00;;;;;;5114690;28;20031;-81
2023/09/17 07:41:02;;;;;;;10.55;7.80;;;20.90;89.10;;;;;;5114812;28;20019;-81
2023/09/17 07:43:28;;;;;;;10.23;7.82;;;21.00;89.60;;;;;;5114828;28;20050;-82
2023/09/17 07:45:53;;;;;;;9.98;7.43;;;21.10;89.50;;;;;;5114890;28;20020;-81
2023/09/17 07:48:20;;;;;;;9.52;8.20;;;21.00;89.40;;;;;;5114539;28;20023;-81
2023/09/17 07:50:58;;;;;;;10.55;7.45;;;21.00;89.40;;;;;;5115932;28;20099;-81
2023/09/17 07:53:25;;;;;;;9.45;7.85;;;21.10;89.50;;;;;;5114680;28;20058;-82
2023/09/17 07:55:50;;;;;;;9.50;7.80;;;21.10;89.60;;;;;;5114536;28;20020;-82
2023/09/17 07:58:16;;;;;;;9.68;7.40;;;21.00;89.60;;;;;;5114260;28;20026;-81
2023/09/17 08:00:45;;;;;;;9.82;7.18;;;21.00;89.70;;;;;;5114598;28;20045;-83
2023/09/17 08:03:15;;;;;;;9.95;7.45;;;21.00;89.80;;;;;;5114442;28;20043;-81
2023/09/17 08:05:43;;;;;;;8.40;6.88;;;21.00;89.90;;;;;;5115456;28;20124;-81
2023/09/17 08:08:08;;;;;;;9.10;7.22;;;21.00;90.00;;;;;;5114395;28;20030;-81
2023/09/17 08:10:36;;;;;;;8.80;7.20;;;21.00;90.00;;;;;;5114524;28;20019;-80
2023/09/17 08:13:02;;;;;;;10.68;7.15;;;21.10;90.00;;;;;;5114274;28;20099;-81
2023/09/17 08:15:29;;;;;;;9.27;6.95;;;21.10;90.00;;;;;;5114250;28;20088;-82
2023/09/17 08:17:55;;;;;;;9.05;6.80;;;21.10;90.00;;;;;;5113794;28;20050;-82
2023/09/17 08:20:22;;;;;;;8.70;7.10;;;21.10;90.00;;;;;;5114260;28;20030;-81
2023/09/17 08:22:50;;;;;;;9.20;7.05;;;21.10;90.00;;;;;;5114090;28;20023;-81
2023/09/17 08:25:16;;;;;;;9.55;6.88;;;21.10;90.00;;;;;;5113928;28;20030;-81
2023/09/17 08:27:41;;;;;;;8.00;6.40;;;21.10;90.00;;;;;;5113914;28;20020;-81
2023/09/17 08:30:11;;;;;;;8.02;6.45;;;21.10;90.00;;;;;;5115266;28;20055;-81
2023/09/17 08:32:37;;;;;;;9.82;6.85;;;21.10;90.00;;;;;;5113797;28;20024;-81
2023/09/17 08:35:03;;;;;;;8.30;6.22;;;21.10;90.00;;;;;;5112644;28;20028;-81
2023/09/17 08:37:29;;;;;;;9.07;6.40;;;21.10;90.00;;;;;;5113766;28;20458;-82
2023/09/17 08:39:55;;;;;;;8.10;6.50;;;21.10;90.00;;;;;;5113587;28;20430;-82
2023/09/17 08:42:21;;;;;;;8.38;6.72;;;21.10;90.10;;;;;;5113928;28;20027;-81
2023/09/17 08:44:49;;;;;;;7.72;6.22;;;21.10;90.10;;;;;;5113536;28;20068;-82
2023/09/17 08:47:14;;;;;;;9.25;6.57;;;21.10;90.10;;;;;;5113395;28;20076;-82
2023/09/17 08:49:40;;;;;;;10.48;6.07;;;21.10;90.10;;;;;;5113530;28;20031;-81
2023/09/17 08:52:08;;;;;;;8.65;6.22;;;21.10;90.10;;;;;;5113607;28;20128;-81
2023/09/17 08:54:40;;;;;;;7.65;5.82;;;21.10;90.10;;;;;;5113410;28;20028;-82
2023/09/17 08:57:07;;;;;;;7.65;5.53;;;21.20;90.10;;;;;;5113468;28;20023;-81
2023/09/17 08:59:40;;;;;;;7.50;6.07;;;21.20;90.10;;;;;;5114374;28;20110;-80
2023/09/17 09:02:22;;;;;;;8.35;6.00;;;21.10;90.10;;;;;;5113256;28;20033;-82
2023/09/17 09:04:50;;;;;;;8.10;6.03;;;21.10;90.00;;;;;;5113304;28;20491;-81
2023/09/17 09:07:25;;;;;;;7.45;5.88;;;21.10;90.10;;;;;;5114274;28;20027;-82
2023/09/17 09:09:52;;;;;;;7.55;5.80;;;21.20;90.10;;;;;;5113239;28;20407;-81
2023/09/17 09:12:18;;;;;;;7.38;5.53;;;21.20;90.10;;;;;;5113222;28;20507;-82
2023/09/17 09:14:44;;;;;;;7.90;5.75;;;21.20;90.00;;;;;;5112945;28;20031;-81
2023/09/17 09:17:13;;;;;;;7.50;5.45;;;21.30;90.00;;;;;;5112781;28;20026;-80
2023/09/17 09:19:39;;;;;;;7.95;5.97;;;21.30;89.90;;;;;;5112974;28;20028;-82
2023/09/17 09:22:05;;;;;;;7.80;5.72;;;21.30;89.90;;;;;;5112982;28;20020;-81
2023/09/17 09:24:47;;;;;;;7.40;5.35;;;21.30;89.90;;;;;;5112794;28;20410;-81
2023/09/17 09:27:13;;;;;;;8.50;5.35;;;21.30;90.00;;;;;;5112769;28;20020;-81
2023/09/17 09:29:42;;;;;;;7.90;5.00;;;21.30;90.00;;;;;;5112833;28;20035;-83
2023/09/17 09:32:11;;;;;;;7.30;5.63;;;21.20;89.90;;;;;;5112725;28;20031;-81
2023/09/17 09:34:38;;;;;;;6.78;4.93;;;21.20;90.00;;;;;;5113933;28;20019;-81
2023/09/17 09:37:08;;;;;;;7.47;5.30;;;21.20;90.00;;;;;;5113714;28;20028;-81
2023/09/17 09:39:37;;;;;;;6.85;5.05;;;21.30;90.00;;;;;;5112715;28;20066;-83
2023/09/17 09:42:07;;;;;;;7.22;5.40;;;21.30;90.00;;;;;;5112508;28;20047;-81
2023/09/17 09:44:35;;;;;;;7.32;5.30;;;21.30;90.00;;;;;;5112416;28;20098;-80
2023/09/17 09:47:02;;;;;;;7.15;5.10;;;21.30;90.00;;;;;;5113288;28;20031;-81
2023/09/17 09:49:28;;;;;;;7.40;5.20;;;21.40;89.90;;;;;;5112461;28;20068;-81
2023/09/17 09:51:57;;;;;;;6.60;5.07;;;21.40;89.80;;;;;;5112665;28;20028;-82
2023/09/17 09:54:23;;;;;;;6.70;4.95;;;21.40;89.80;;;;;;5112387;28;20118;-81
2023/09/17 09:56:49;;;;;;;6.40;5.00;;;21.50;89.70;;;;;;5113399;28;20050;-81
2023/09/17 09:59:16;;;;;;;6.07;4.57;;;21.50;89.60;;;;;;5111723;28;20468;-81
2023/09/17 10:01:42;;;;;;;6.53;4.72;;;21.50;89.60;;;;;;5113466;28;20020;-82
2023/09/17 10:04:11;;;;;;;6.72;4.68;;;21.50;89.50;;;;;;5112094;28;20108;-82
2023/09/17 10:06:39;;;;;;;7.18;4.78;;;21.60;89.30;;;;;;5113383;28;20483;-81
2023/09/17 10:09:06;;;;;;;7.13;4.68;;;21.60;89.10;;;;;;5113154;28;20023;-81
2023/09/17 10:11:32;;;;;;;6.80;4.63;;;21.70;89.00;;;;;;5111952;28;20055;-82
2023/09/17 10:14:03;;;;;;;7.47;5.00;;;21.70;88.90;;;;;;5111760;28;20028;-82
2023/09/17 10:16:31;;;;;;;6.80;4.90;;;21.80;88.70;;;;;;5113262;28;20043;-81
2023/09/17 10:18:58;;;;;;;6.90;4.53;;;21.80;88.70;;;;;;5111416;28;20499;-81
2023/09/17 10:21:27;;;;;;;6.43;4.68;;;21.80;88.70;;;;;;5111911;28;20110;-83
2023/09/17 10:23:55;;;;;;;6.32;4.43;;;21.80;88.80;;;;;;5111634;28;20019;-81
2023/09/17 10:26:22;;;;;;;6.85;4.57;;;21.90;88.90;;;;;;5111820;28;20023;-82
2023/09/17 10:28:49;;;;;;;6.50;4.45;;;21.80;88.80;;;;;;5111495;28;20080;-81
2023/09/17 10:31:16;;;;;;;6.72;4.70;;;21.90;89.00;;;;;;5111615;28;20080;-81
2023/09/17 10:33:47;;;;;;;6.53;4.45;;;21.90;89.00;;;;;;5112619;28;20069;-82
2023/09/17 10:36:13;;;;;;;;;;;21.80;88.90;;;;;;5112009;28;20035;-81
2023/09/17 10:38:41;;;;;;;6.65;4.40;;;21.90;89.00;;;;;;5111245;28;19907;-82
2023/09/17 10:41:06;;;;;;;6.50;4.72;;;21.90;88.90;;;;;;5112950;28;20467;-82
2023/09/17 10:43:35;;;;;;;6.10;4.10;;;21.90;89.00;;;;;;5111378;28;20110;-81
2023/09/17 10:46:01;;;;;;;5.50;3.97;;;21.90;88.90;;;;;;5112644;28;20022;-81
2023/09/17 10:48:28;;;;;;;5.93;4.35;;;21.90;88.90;;;;;;5111453;28;20050;-81
2023/09/17 10:50:54;;;;;;;5.95;4.20;;;21.90;89.00;;;;;;5111241;28;20018;-81
2023/09/17 10:53:20;;;;;;;6.25;4.22;;;21.80;89.10;;;;;;5112396;28;20034;-82
2023/09/17 10:55:53;;;;;;;6.30;4.50;;;21.80;89.20;;;;;;5111146;28;20024;-82
2023/09/17 10:58:30;;;;;;;5.90;4.00;;;22.50;89.60;;;;;;5110042;28;20030;-81
2023/09/17 11:00:59;;;;;;;6.40;4.05;;;21.90;89.20;;;;;;5111146;28;20089;-82
2023/09/17 11:03:27;;;;;;;6.47;4.07;;;21.90;89.10;;;;;;5112423;28;20023;-82
2023/09/17 11:05:55;;;;;;;6.15;3.83;;;21.90;89.00;;;;;;5111244;28;20024;-82
2023/09/17 11:08:21;;;;;;;6.25;4.03;;;22.00;88.90;;;;;;5111078;28;20077;-81
2023/09/17 11:10:47;;;;;;;5.68;3.88;;;22.00;88.70;;;;;;5111115;28;20027;-81
2023/09/17 11:13:13;;;;;;;6.07;4.07;;;22.00;88.60;;;;;;5111047;28;20023;-81
2023/09/17 11:15:41;;;;;;;5.78;3.83;;;22.00;88.70;;;;;;5111040;28;20024;-82
2023/09/17 11:18:07;;;;;;;5.60;3.67;;;22.00;88.70;;;;;;5112077;28;20011;-81
2023/09/17 11:20:33;;;;;;;6.20;4.22;;;22.00;88.80;;;;;;5111038;28;20089;-81
2023/09/17 11:23:00;;;;;;;7.00;4.28;;;22.00;88.90;;;;;;5111163;28;20016;-81
2023/09/17 11:25:34;;;;;;;6.25;4.10;;;22.00;88.90;;;;;;5110975;28;20026;-80
2023/09/17 11:28:11;;;;;;;6.05;4.15;;;22.00;89.00;;;;;;5110789;28;20020;-82
2023/09/17 11:30:59;;;;;;;5.22;3.50;;;22.00;89.00;;;;;;5111015;28;20055;-81
2023/09/17 11:33:29;;;;;;;5.60;3.47;;;22.00;89.00;;;;;;5112122;28;20028;-81
2023/09/17 11:36:00;;;;;;;5.95;4.28;;;22.00;89.10;;;;;;5110828;28;20060;-80
2023/09/17 11:38:26;;;;;;;;;;;21.90;89.10;;;;;;5111059;28;20023;-81
2023/09/17 11:41:05;;;;;;;6.35;3.75;;;21.90;89.10;;;;;;5110747;28;19949;-80
2023/09/17 11:43:32;;;;;;;6.15;4.35;;;22.00;89.20;;;;;;5111914;28;20407;-82
2023/09/17 11:45:58;;;;;;;5.65;3.70;;;22.00;89.20;;;;;;5110968;28;20134;-81
2023/09/17 11:48:25;;;;;;;5.30;3.65;;;22.00;89.20;;;;;;5110726;28;20527;-81
2023/09/17 11:50:50;;;;;;;4.70;3.30;;;22.00;89.20;;;;;;5110668;28;20127;-81
2023/09/17 11:53:16;;;;;;;5.88;4.05;;;22.00;89.20;;;;;;5110774;28;20106;-80
2023/09/17 11:55:41;;;;;;;5.95;3.70;;;22.00;89.10;;;;;;5110456;28;20148;-82
2023/09/17 11:58:18;;;;;;;5.13;3.60;;;22.00;89.00;;;;;;5110320;28;20197;-80
2023/09/17 12:00:44;;;;;;;6.03;3.88;;;22.10;88.90;;;;;;5110687;28;20034;-80
2023/09/17 12:03:11;;;;;;;6.22;3.65;;;22.10;88.80;;;;;;5110793;28;20063;-80
2023/09/17 12:05:37;;;;;;;5.45;3.90;;;22.00;88.70;;;;;;5111842;28;20027;-80
2023/09/17 12:08:05;;;;;;;6.05;3.80;;;22.10;88.70;;;;;;5110324;28;20089;-80
2023/09/17 12:10:33;;;;;;;5.80;3.53;;;22.00;88.80;;;;;;5114055;28;20032;-80
2023/09/17 12:12:59;;;;;;;5.50;3.70;;;22.00;88.90;;;;;;5114486;28;20027;-81
2023/09/17 12:15:26;;;;;;;5.47;3.70;;;22.00;88.90;;;;;;5115560;28;20054;-82
2023/09/17 12:17:52;;;;;;;5.63;3.70;;;22.00;89.00;;;;;;5113939;28;20114;-80
2023/09/17 12:20:40;;;;;;;5.20;3.67;;;22.00;89.00;;;;;;5114189;28;20024;-81
2023/09/17 12:23:13;;;;;;;5.40;3.47;;;22.00;89.10;;;;;;5114387;28;20016;-81
2023/09/17 12:25:43;;;;;;;5.72;3.88;;;22.00;89.10;;;;;;5113845;28;20019;-81
2023/09/17 12:28:08;;;;;;;5.57;3.70;;;22.00;89.20;;;;;;5115320;28;20098;-81
2023/09/17 12:30:34;;;;;;;5.18;3.35;;;21.90;89.20;;;;;;5113883;28;20123;-80
2023/09/17 12:33:00;;;;;;;5.43;3.70;;;21.90;89.20;;;;;;5113910;28;20036;-81
2023/09/17 12:35:26;;;;;;;5.03;3.40;;;22.00;89.30;;;;;;5113620;28;20559;-82
2023/09/17 12:37:51;;;;;;;5.00;3.53;;;21.90;89.30;;;;;;5113613;28;20024;-80
2023/09/17 12:40:17;;;;;;;5.75;3.60;;;22.00;89.40;;;;;;5114941;28;20023;-82
2023/09/17 12:42:42;;;;;;;5.78;3.60;;;21.90;89.40;;;;;;5113685;28;20494;-79
2023/09/17 12:45:08;;;;;;;5.28;3.72;;;22.00;89.50;;;;;;5114864;28;20032;-80
2023/09/17 12:47:34;;;;;;;5.00;3.28;;;21.90;89.50;;;;;;5114710;28;20077;-80